createdAt,value
2018-08-24T00:01:37.742Z,21.66
2018-08-24T00:04:08.568Z,21.87
2018-08-24T00:06:39.954Z,21.80
2018-08-24T00:09:14.131Z,21.74
2018-08-24T00:11:43.676Z,21.85
2018-08-24T00:14:13.370Z,22.02
2018-08-24T00:16:43.038Z,22.15
2018-08-24T00:19:13.626Z,21.67
2018-08-24T00:21:43.233Z,21.87
2018-08-24T00:24:13.245Z,21.86
2018-08-24T00:26:42.625Z,21.92
2018-08-24T00:29:12.311Z,21.95
2018-08-24T00:31:41.760Z,21.98
2018-08-24T00:34:11.072Z,22.07
2018-08-24T00:36:40.464Z,22.12
2018-08-24T00:39:10.065Z,21.90
2018-08-24T00:41:39.420Z,22.10
2018-08-24T00:44:08.908Z,22.08
2018-08-24T00:46:38.373Z,22.16
2018-08-24T00:49:08.392Z,22.03
2018-08-24T00:51:37.773Z,21.68
2018-08-24T00:54:07.153Z,21.51
2018-08-24T00:56:36.539Z,21.42
2018-08-24T00:59:05.937Z,21.58
2018-08-24T01:01:35.329Z,21.78
2018-08-24T01:04:04.740Z,21.82
2018-08-24T01:06:34.117Z,21.87
2018-08-24T01:09:03.566Z,21.80
2018-08-24T01:11:38.197Z,21.69
2018-08-24T01:14:07.585Z,21.75
2018-08-24T01:16:42.173Z,21.73
2018-08-24T01:19:11.561Z,21.73
2018-08-24T01:21:40.937Z,21.60
2018-08-24T01:24:10.337Z,21.65
2018-08-24T01:26:39.730Z,21.44
2018-08-24T01:29:09.070Z,21.29
2018-08-24T01:31:38.457Z,21.35
2018-08-24T01:34:07.937Z,21.34
2018-08-24T01:36:43.043Z,21.22
2018-08-24T01:39:12.500Z,21.13
2018-08-24T01:41:41.859Z,21.17
2018-08-24T01:44:11.294Z,21.06
2018-08-24T01:51:43.951Z,21.29
2018-08-24T01:54:13.513Z,21.21
2018-08-24T01:56:49.580Z,21.18
2018-08-24T01:59:18.961Z,21.16
2018-08-24T02:01:48.358Z,21.12
2018-08-24T02:04:17.757Z,21.04
2018-08-24T02:06:47.166Z,20.94
2018-08-24T02:09:16.677Z,20.90
2018-08-24T02:11:46.081Z,20.79
2018-08-24T02:14:50.158Z,20.65
2018-08-24T02:17:24.762Z,20.68
2018-08-24T02:19:59.350Z,20.59
2018-08-24T02:22:28.774Z,20.46
2018-08-24T02:24:58.158Z,20.38
2018-08-24T02:27:27.542Z,20.33
2018-08-24T02:29:58.074Z,20.28
2018-08-24T02:32:27.454Z,20.14
2018-08-24T02:34:59.509Z,20.11
2018-08-24T02:37:30.331Z,19.89
2018-08-24T02:39:59.726Z,19.81
2018-08-24T02:42:29.116Z,19.75
2018-08-24T02:44:58.528Z,19.60
2018-08-24T02:47:27.881Z,19.51
2018-08-24T02:49:57.258Z,19.35
2018-08-24T02:52:26.644Z,19.31
2018-08-24T02:54:56.045Z,19.26
2018-08-24T02:57:25.405Z,19.09
2018-08-24T02:59:54.805Z,19.05
2018-08-24T03:02:24.174Z,18.94
2018-08-24T03:04:53.598Z,18.80
2018-08-24T03:07:23.021Z,18.85
2018-08-24T03:09:52.406Z,18.81
2018-08-24T03:12:22.020Z,18.83
2018-08-24T03:14:51.405Z,18.87
2018-08-24T03:17:26.221Z,18.77
2018-08-24T03:19:55.638Z,18.69
2018-08-24T03:22:25.015Z,18.62
2018-08-24T03:24:54.400Z,18.80
2018-08-24T03:27:23.897Z,18.86
2018-08-24T03:29:53.274Z,18.87
2018-08-24T03:32:22.731Z,18.83
2018-08-24T03:34:52.110Z,18.79
2018-08-24T03:37:21.630Z,18.79
2018-08-24T03:39:53.072Z,18.76
2018-08-24T03:42:22.552Z,18.80
2018-08-24T03:44:51.942Z,18.82
2018-08-24T03:47:21.639Z,18.85
2018-08-24T03:49:51.052Z,18.94
2018-08-24T03:52:20.457Z,18.99
2018-08-24T03:54:49.874Z,19.04
2018-08-24T03:57:19.369Z,18.92
2018-08-24T03:59:48.753Z,19.03
2018-08-24T04:02:18.152Z,19.11
2018-08-24T04:04:47.525Z,19.22
2018-08-24T04:07:16.918Z,19.28
2018-08-24T04:09:46.294Z,19.43
2018-08-24T04:12:15.684Z,19.41
2018-08-24T04:14:45.066Z,19.40
2018-08-24T04:17:19.745Z,19.44
2018-08-24T04:19:49.146Z,19.51
2018-08-24T04:22:18.542Z,19.52
2018-08-24T04:24:47.910Z,19.40
2018-08-24T04:27:17.325Z,19.29
2018-08-24T04:29:46.754Z,19.40
2018-08-24T04:32:16.118Z,19.40
2018-08-24T04:34:45.560Z,19.15
2018-08-24T04:37:14.918Z,19.35
2018-08-24T04:39:44.313Z,19.17
2018-08-24T04:42:13.859Z,19.36
2018-08-24T04:44:43.249Z,19.27
2018-08-24T04:47:12.619Z,19.27
2018-08-24T04:49:42.057Z,19.21
2018-08-24T04:52:11.430Z,19.33
2018-08-24T04:54:40.866Z,19.25
2018-08-24T04:57:10.308Z,19.06
2018-08-24T04:59:39.711Z,19.24
2018-08-24T05:02:09.221Z,19.03
2018-08-24T05:04:38.602Z,19.21
2018-08-24T05:07:08.026Z,18.90
2018-08-24T05:09:37.402Z,19.03
2018-08-24T05:12:06.806Z,19.01
2018-08-24T05:14:36.193Z,18.80
2018-08-24T05:17:05.654Z,18.74
2018-08-24T05:19:35.005Z,18.80
2018-08-24T05:22:04.390Z,18.62
2018-08-24T05:24:34.860Z,18.44
2018-08-24T05:27:04.227Z,18.50
2018-08-24T05:29:34.145Z,18.41
2018-08-24T05:32:03.537Z,18.44
2018-08-24T05:34:33.022Z,18.52
2018-08-24T05:37:02.401Z,18.49
2018-08-24T05:39:32.261Z,18.67
2018-08-24T05:42:01.702Z,18.84
2018-08-24T05:44:31.104Z,18.81
2018-08-24T05:47:00.489Z,19.03
2018-08-24T05:49:29.879Z,19.03
2018-08-24T05:51:59.265Z,18.99
2018-08-24T05:54:28.686Z,19.10
2018-08-24T05:56:58.095Z,18.95
2018-08-24T05:59:27.526Z,19.11
2018-08-24T06:01:56.946Z,19.14
2018-08-24T06:04:27.389Z,18.95
2018-08-24T06:06:59.106Z,18.85
2018-08-24T06:09:28.494Z,18.94
2018-08-24T06:11:59.170Z,18.99
2018-08-24T06:14:28.548Z,19.13
2018-08-24T06:17:03.187Z,19.04
2018-08-24T06:19:32.590Z,18.94
2018-08-24T06:22:01.986Z,18.98
2018-08-24T06:24:31.491Z,19.24
2018-08-24T06:27:00.804Z,19.26
2018-08-24T06:29:30.194Z,19.05
2018-08-24T06:31:59.598Z,18.93
2018-08-24T06:34:30.009Z,18.71
2018-08-24T06:36:59.423Z,18.74
2018-08-24T06:39:28.830Z,18.66
2018-08-24T06:41:58.293Z,18.64
2018-08-24T06:44:27.601Z,18.56
2018-08-24T06:46:57.008Z,18.50
2018-08-24T06:49:26.390Z,18.48
2018-08-24T06:51:55.773Z,18.72
2018-08-24T06:54:25.189Z,18.64
2018-08-24T06:56:54.633Z,18.73
2018-08-24T06:59:24.014Z,18.53
2018-08-24T07:01:53.425Z,18.52
2018-08-24T07:04:22.814Z,18.43
2018-08-24T07:06:52.222Z,18.56
2018-08-24T07:09:21.598Z,18.41
2018-08-24T07:11:50.988Z,18.46
2018-08-24T07:14:20.387Z,18.64
2018-08-24T07:16:53.909Z,18.68
2018-08-24T07:19:23.295Z,18.71
2018-08-24T07:21:52.683Z,18.81
2018-08-24T07:24:26.102Z,18.71
2018-08-24T07:26:55.890Z,18.71
2018-08-24T07:29:25.343Z,18.62
2018-08-24T07:31:54.694Z,18.57
2018-08-24T07:34:24.074Z,18.24
2018-08-24T07:36:53.495Z,18.32
2018-08-24T07:39:22.877Z,18.33
2018-08-24T07:41:52.320Z,18.18
2018-08-24T07:44:21.690Z,18.19
2018-08-24T07:46:51.078Z,18.27
2018-08-24T07:49:20.493Z,18.25
2018-08-24T07:51:49.930Z,18.30
2018-08-24T07:54:19.306Z,18.19
2018-08-24T07:56:48.696Z,17.94
2018-08-24T07:59:18.097Z,17.84
2018-08-24T08:01:47.550Z,18.17
2018-08-24T08:04:16.962Z,18.18
2018-08-24T08:06:46.518Z,18.30
2018-08-24T08:09:15.930Z,17.94
2018-08-24T08:11:45.338Z,18.04
2018-08-24T08:14:14.725Z,18.27
2018-08-24T08:16:44.217Z,18.10
2018-08-24T08:19:13.693Z,18.24
2018-08-24T08:21:43.121Z,18.33
2018-08-24T08:24:12.493Z,18.42
2018-08-24T08:26:41.880Z,18.45
2018-08-24T08:29:15.678Z,18.65
2018-08-24T08:31:45.033Z,18.81
2018-08-24T08:34:14.462Z,19.10
2018-08-24T08:36:43.926Z,19.27
2018-08-24T08:39:13.585Z,19.57
2018-08-24T08:41:43.439Z,19.72
2018-08-24T08:44:14.054Z,19.60
2018-08-24T08:46:43.680Z,19.51
2018-08-24T08:49:13.193Z,19.51
2018-08-24T08:51:42.580Z,19.63
2018-08-24T08:54:11.974Z,19.52
2018-08-24T08:56:41.382Z,19.68
2018-08-24T08:59:10.775Z,19.72
2018-08-24T09:01:40.165Z,19.63
2018-08-24T09:04:09.581Z,19.59
2018-08-24T09:06:39.114Z,19.52
2018-08-24T09:09:09.802Z,19.38
2018-08-24T09:11:39.197Z,19.72
2018-08-24T09:14:08.616Z,19.85
2018-08-24T09:16:37.958Z,20.14
2018-08-24T09:19:12.510Z,20.43
2018-08-24T09:21:46.957Z,20.49
2018-08-24T09:24:21.379Z,20.78
2018-08-24T09:26:56.038Z,20.93
2018-08-24T09:29:27.657Z,21.27
2018-08-24T09:31:58.754Z,21.33
2018-08-24T09:34:28.127Z,21.04
2018-08-24T09:36:57.586Z,21.03
2018-08-24T09:39:28.004Z,20.98
2018-08-24T09:41:59.391Z,20.97
2018-08-24T09:44:28.877Z,21.05
2018-08-24T09:47:03.581Z,21.23
2018-08-24T09:49:36.267Z,21.29
2018-08-24T09:52:10.989Z,21.21
2018-08-24T09:54:40.378Z,21.18
2018-08-24T09:57:09.749Z,21.16
2018-08-24T09:59:39.154Z,20.82
2018-08-24T10:02:13.549Z,20.74
2018-08-24T10:04:48.139Z,20.66
2018-08-24T10:07:24.186Z,20.62
2018-08-24T10:09:53.543Z,20.75
2018-08-24T10:12:22.913Z,20.55
2018-08-24T10:14:52.285Z,20.25
2018-08-24T10:17:25.961Z,20.09
2018-08-24T10:19:55.461Z,20.21
2018-08-24T10:22:24.950Z,20.41
2018-08-24T10:24:54.378Z,20.13
2018-08-24T10:27:23.765Z,20.29
2018-08-24T10:29:53.182Z,20.22
2018-08-24T10:32:22.773Z,20.69
2018-08-24T10:34:52.182Z,20.85
2018-08-24T10:37:21.572Z,21.23
2018-08-24T10:39:51.061Z,21.42
2018-08-24T10:42:20.455Z,21.85
2018-08-24T10:44:49.830Z,21.98
2018-08-24T10:47:19.283Z,22.09
2018-08-24T10:49:48.614Z,22.15
2018-08-24T10:52:18.042Z,22.25
2018-08-24T10:54:47.405Z,21.90
2018-08-24T10:57:16.801Z,22.08
2018-08-24T10:59:46.168Z,21.43
2018-08-24T11:02:15.578Z,21.23
2018-08-24T11:04:44.950Z,21.09
2018-08-24T11:07:14.363Z,20.95
2018-08-24T11:09:43.718Z,20.84
2018-08-24T11:12:13.121Z,20.68
2018-08-24T11:14:42.506Z,20.54
2018-08-24T11:17:11.978Z,20.77
2018-08-24T11:19:41.373Z,21.26
2018-08-24T11:22:10.816Z,21.30
2018-08-24T11:24:40.198Z,21.60
2018-08-24T11:27:09.594Z,22.00
2018-08-24T11:29:39.008Z,21.85
2018-08-24T11:32:08.386Z,22.35
2018-08-24T11:34:37.789Z,22.62
2018-08-24T11:37:07.264Z,23.13
2018-08-24T11:39:36.637Z,23.34
2018-08-24T11:42:06.053Z,22.98
2018-08-24T11:44:35.438Z,22.80
2018-08-24T11:47:05.017Z,22.25
2018-08-24T11:49:34.406Z,21.84
2018-08-24T11:52:03.779Z,20.77
2018-08-24T11:54:33.284Z,20.06
2018-08-24T11:57:02.633Z,20.06
2018-08-24T11:59:31.987Z,19.92
2018-08-24T12:02:01.432Z,19.97
2018-08-24T12:04:30.894Z,19.87
2018-08-24T12:07:00.274Z,20.09
2018-08-24T12:09:29.666Z,20.19
2018-08-24T12:11:59.107Z,20.48
2018-08-24T12:14:28.486Z,20.58
2018-08-24T12:16:57.970Z,20.64
2018-08-24T12:19:27.434Z,20.83
2018-08-24T12:21:56.841Z,20.71
2018-08-24T12:24:26.309Z,20.95
2018-08-24T12:26:55.674Z,21.05
2018-08-24T12:29:25.078Z,21.73
2018-08-24T12:31:54.482Z,22.04
2018-08-24T12:34:23.965Z,21.60
2018-08-24T12:36:53.481Z,21.94
2018-08-24T12:39:22.867Z,21.98
2018-08-24T12:41:52.314Z,21.83
2018-08-24T12:44:21.683Z,21.75
2018-08-24T12:46:51.086Z,21.80
2018-08-24T12:49:20.562Z,22.11
2018-08-24T12:51:49.936Z,22.32
2018-08-24T12:54:19.302Z,23.02
2018-08-24T12:56:48.668Z,22.49
2018-08-24T12:59:18.055Z,22.11
2018-08-24T13:01:47.420Z,21.93
2018-08-24T13:04:16.868Z,21.40
2018-08-24T13:06:46.301Z,22.02
2018-08-24T13:09:15.718Z,22.24
2018-08-24T13:11:45.150Z,22.61
2018-08-24T13:14:14.682Z,22.71
2018-08-24T13:16:44.418Z,22.55
2018-08-24T13:19:13.865Z,22.65
2018-08-24T13:21:43.329Z,22.57
2018-08-24T13:24:12.692Z,23.43
2018-08-24T13:26:42.123Z,23.14
2018-08-24T13:29:11.526Z,23.16
2018-08-24T13:31:40.920Z,23.68
2018-08-24T13:34:10.286Z,22.97
2018-08-24T13:36:39.642Z,23.51
2018-08-24T13:39:12.486Z,24.29
2018-08-24T13:41:41.946Z,25.43
2018-08-24T13:44:11.389Z,24.76
2018-08-24T13:46:40.761Z,24.37
2018-08-24T13:49:10.116Z,24.95
2018-08-24T13:51:39.522Z,24.07
2018-08-24T13:54:09.333Z,23.95
2018-08-24T13:56:38.738Z,26.06
2018-08-24T13:59:08.206Z,27.12
2018-08-24T14:01:37.665Z,24.90
2018-08-24T14:04:07.070Z,25.58
2018-08-24T14:06:36.446Z,24.57
2018-08-24T14:09:09.606Z,23.53
2018-08-24T14:11:38.977Z,24.19
2018-08-24T14:14:08.818Z,24.55
2018-08-24T14:16:38.554Z,25.32
2018-08-24T14:19:08.174Z,25.70
2018-08-24T14:21:37.875Z,24.54
2018-08-24T14:24:07.597Z,23.90
2018-08-24T14:26:37.168Z,23.44
2018-08-24T14:29:06.617Z,23.64
2018-08-24T14:31:36.070Z,23.00
2018-08-24T14:34:05.413Z,22.72
2018-08-24T14:36:34.898Z,22.26
2018-08-24T14:39:05.051Z,22.83
2018-08-24T14:41:34.422Z,23.73
2018-08-24T14:44:03.966Z,24.34
2018-08-24T14:46:33.352Z,23.28
2018-08-24T14:49:02.743Z,23.09
2018-08-24T14:51:32.261Z,24.02
2018-08-24T14:54:01.646Z,24.66
2018-08-24T14:56:31.039Z,24.35
2018-08-24T14:59:00.446Z,24.85
2018-08-24T15:01:29.830Z,24.59
2018-08-24T15:03:59.231Z,24.58
2018-08-24T15:06:28.646Z,23.91
2018-08-24T15:08:58.042Z,24.53
2018-08-24T15:11:27.482Z,25.09
2018-08-24T15:13:56.847Z,25.90
2018-08-24T15:16:26.290Z,25.66
2018-08-24T15:18:55.655Z,25.53
2018-08-24T15:21:25.027Z,23.67
2018-08-24T15:23:54.417Z,24.34
2018-08-24T15:26:23.847Z,25.87
2018-08-24T15:28:53.265Z,26.36
2018-08-24T15:31:22.800Z,24.35
2018-08-24T15:33:52.260Z,24.40
2018-08-24T15:36:21.713Z,24.56
2018-08-24T15:38:51.166Z,25.15
2018-08-24T15:41:20.566Z,25.40
2018-08-24T15:43:49.938Z,25.64
2018-08-24T15:46:19.347Z,25.59
2018-08-24T15:48:48.705Z,26.71
2018-08-24T15:51:18.110Z,25.89
2018-08-24T15:53:47.490Z,24.90
2018-08-24T15:56:16.931Z,26.02
2018-08-24T15:58:46.406Z,26.81
2018-08-24T16:01:15.802Z,27.15
2018-08-24T16:03:45.293Z,27.08
2018-08-24T16:06:14.693Z,26.84
2018-08-24T16:08:44.145Z,26.67
2018-08-24T16:11:13.525Z,25.49
2018-08-24T16:13:42.946Z,24.39
2018-08-24T16:16:12.366Z,24.16
2018-08-24T16:18:41.839Z,23.56
2018-08-24T16:21:11.226Z,23.26
2018-08-24T16:23:40.648Z,22.86
2018-08-24T16:26:14.147Z,22.54
2018-08-24T16:28:43.510Z,22.01
2018-08-24T16:31:12.918Z,21.49
2018-08-24T16:33:42.314Z,21.36
2018-08-24T16:36:11.951Z,20.92
2018-08-24T16:38:41.352Z,21.03
2018-08-24T16:41:10.814Z,20.61
2018-08-24T16:43:40.290Z,20.83
2018-08-24T16:46:09.666Z,20.70
2018-08-24T16:48:39.230Z,20.79
2018-08-24T16:51:09.217Z,20.52
2018-08-24T16:53:38.691Z,20.68
2018-08-24T16:56:08.339Z,20.71
2018-08-24T16:58:37.809Z,20.59
2018-08-24T17:01:07.854Z,20.40
2018-08-24T17:03:37.235Z,20.19
2018-08-24T17:06:06.639Z,20.06
2018-08-24T17:08:36.026Z,20.20
2018-08-24T17:11:05.439Z,19.86
2018-08-24T17:13:34.922Z,19.92
2018-08-24T17:16:04.318Z,19.98
2018-08-24T17:18:33.730Z,19.94
2018-08-24T17:21:03.159Z,19.86
2018-08-24T17:23:32.611Z,19.76
2018-08-24T17:26:02.002Z,19.84
2018-08-24T17:28:31.431Z,19.82
2018-08-24T17:31:00.817Z,19.74
2018-08-24T17:33:30.246Z,19.69
2018-08-24T17:35:59.718Z,19.67
2018-08-24T17:38:29.123Z,19.57
2018-08-24T17:40:58.506Z,19.51
2018-08-24T17:43:27.890Z,19.57
2018-08-24T17:45:57.398Z,19.29
2018-08-24T17:48:26.770Z,19.42
2018-08-24T17:50:56.166Z,19.25
2018-08-24T17:53:25.526Z,19.41
2018-08-24T17:55:54.919Z,18.89
2018-08-24T17:58:24.346Z,18.97
2018-08-24T18:00:53.835Z,19.09
2018-08-24T18:03:23.917Z,19.25
2018-08-24T18:05:54.232Z,19.08
2018-08-24T18:08:23.618Z,19.05
2018-08-24T18:10:53.000Z,19.11
2018-08-24T18:13:22.400Z,19.11
2018-08-24T18:15:51.783Z,19.05
2018-08-24T18:18:21.237Z,19.05
2018-08-24T18:20:50.640Z,18.80
2018-08-24T18:23:20.041Z,18.83
2018-08-24T18:25:49.478Z,18.84
2018-08-24T18:28:18.998Z,18.96
2018-08-24T18:30:48.434Z,18.87
2018-08-24T18:33:18.059Z,18.81
2018-08-24T18:35:47.647Z,18.85
2018-08-24T18:38:17.137Z,18.83
2018-08-24T18:40:46.532Z,18.83
2018-08-24T18:43:16.081Z,18.57
2018-08-24T18:45:45.570Z,18.41
2018-08-24T18:48:15.056Z,18.52
2018-08-24T18:50:44.814Z,18.53
2018-08-24T18:53:14.208Z,18.37
2018-08-24T18:55:43.740Z,18.46
2018-08-24T18:58:13.167Z,18.53
2018-08-24T19:00:42.729Z,18.49
2018-08-24T19:03:12.399Z,18.50
2018-08-24T19:05:42.591Z,18.38
2018-08-24T19:08:14.661Z,18.20
2018-08-24T19:10:51.557Z,17.86
2018-08-24T19:13:24.193Z,18.07
2018-08-24T19:15:56.772Z,18.13
2018-08-24T19:18:34.482Z,18.12
2018-08-24T19:21:11.751Z,18.18
2018-08-24T19:23:44.894Z,17.90
2018-08-24T19:26:17.595Z,17.86
2018-08-24T19:28:55.201Z,17.74
2018-08-24T19:31:27.291Z,17.47
2018-08-24T19:33:59.092Z,17.38
2018-08-24T19:36:30.688Z,17.25
2018-08-24T19:39:03.650Z,17.47
2018-08-24T19:41:41.214Z,17.51
2018-08-24T19:44:13.933Z,17.50
2018-08-24T19:46:46.249Z,17.50
2018-08-24T19:49:18.331Z,17.58
2018-08-24T19:51:49.490Z,17.52
2018-08-24T19:54:20.096Z,17.58
2018-08-24T19:56:51.098Z,17.78
2018-08-24T19:59:22.660Z,17.69
2018-08-24T20:01:53.567Z,17.85
2018-08-24T20:04:25.929Z,17.62
2018-08-24T20:07:02.973Z,17.54
2018-08-24T20:09:38.459Z,17.36
2018-08-24T20:12:09.011Z,17.23
2018-08-24T20:14:44.196Z,17.17
2018-08-24T20:17:19.032Z,17.06
2018-08-24T20:19:48.510Z,17.13
2018-08-24T20:22:18.469Z,16.98
2018-08-24T20:24:48.739Z,17.02
2018-08-24T20:27:19.615Z,17.05
2018-08-24T20:29:49.416Z,17.07
2018-08-24T20:32:19.725Z,17.20
2018-08-24T20:34:49.205Z,17.31
2018-08-24T20:37:18.718Z,17.31
2018-08-24T20:39:48.098Z,17.36
2018-08-24T20:42:17.669Z,17.43
2018-08-24T20:44:47.078Z,17.37
2018-08-24T20:47:16.663Z,17.39
2018-08-24T20:49:46.087Z,17.37
2018-08-24T20:52:15.542Z,17.34
2018-08-24T20:54:45.003Z,17.34
2018-08-24T20:57:14.517Z,17.24
2018-08-24T20:59:44.043Z,17.19
2018-08-24T21:02:13.448Z,17.12
2018-08-24T21:04:42.834Z,17.06
2018-08-24T21:07:12.230Z,16.87
2018-08-24T21:09:41.731Z,16.79
2018-08-24T21:12:11.142Z,16.74
2018-08-24T21:14:40.588Z,16.68
2018-08-24T21:17:10.023Z,16.60
2018-08-24T21:19:39.384Z,16.62
2018-08-24T21:22:08.946Z,16.48
2018-08-24T21:24:38.451Z,16.48
2018-08-24T21:27:07.875Z,16.45
2018-08-24T21:29:37.276Z,16.36
2018-08-24T21:32:06.827Z,16.21
2018-08-24T21:34:36.214Z,16.15
2018-08-24T21:37:05.594Z,16.01
2018-08-24T21:39:35.182Z,15.99
2018-08-24T21:42:04.662Z,15.85
2018-08-24T21:44:34.030Z,15.92
2018-08-24T21:47:03.690Z,15.88
2018-08-24T21:49:33.058Z,15.75
2018-08-24T21:52:02.423Z,15.68
2018-08-24T21:54:31.790Z,15.64
2018-08-24T21:57:01.146Z,15.40
2018-08-24T21:59:30.544Z,15.35
2018-08-24T22:02:00.035Z,15.19
2018-08-24T22:04:29.489Z,15.05
2018-08-24T22:06:58.884Z,15.03
2018-08-24T22:09:28.271Z,14.99
2018-08-24T22:11:57.706Z,15.01
2018-08-24T22:14:27.124Z,14.95
2018-08-24T22:16:56.560Z,15.06
2018-08-24T22:19:25.910Z,15.00
2018-08-24T22:21:55.273Z,14.92
2018-08-24T22:24:24.670Z,14.82
2018-08-24T22:26:54.049Z,14.85
2018-08-24T22:29:23.443Z,14.89
2018-08-24T22:31:52.837Z,14.62
2018-08-24T22:34:22.221Z,14.60
2018-08-24T22:36:51.619Z,14.61
2018-08-24T22:39:21.001Z,14.59
2018-08-24T22:41:50.383Z,14.51
2018-08-24T22:44:19.806Z,14.63
2018-08-24T22:46:49.178Z,14.63
2018-08-24T22:49:18.581Z,14.66
2018-08-24T22:51:48.422Z,14.64
2018-08-24T22:54:17.833Z,14.69
2018-08-24T22:56:47.315Z,14.57
2018-08-24T22:59:16.713Z,14.60
2018-08-24T23:01:46.179Z,14.49
2018-08-24T23:04:15.576Z,14.44
2018-08-24T23:06:45.084Z,14.46
2018-08-24T23:09:14.670Z,14.50
2018-08-24T23:11:44.081Z,14.47
2018-08-24T23:14:13.458Z,14.45
2018-08-24T23:16:42.813Z,14.46
2018-08-24T23:19:12.194Z,14.48
2018-08-24T23:21:41.598Z,14.47
2018-08-24T23:24:10.994Z,14.40
2018-08-24T23:26:40.354Z,14.41
2018-08-24T23:29:09.817Z,14.44
2018-08-24T23:31:39.210Z,14.42
2018-08-24T23:34:08.611Z,14.56
2018-08-24T23:36:37.978Z,14.48
2018-08-24T23:39:10.038Z,14.47
2018-08-24T23:41:39.413Z,14.50
2018-08-24T23:44:09.460Z,14.49
2018-08-24T23:46:38.921Z,14.55
2018-08-24T23:49:08.326Z,14.51
2018-08-24T23:51:37.714Z,14.54
2018-08-24T23:54:07.166Z,14.53
2018-08-24T23:56:36.547Z,14.46
2018-08-24T23:59:06.013Z,14.45
